Santiam Pass, Oregon
Current Conditions -  °F | °C
As of 9:56 PM on Tuesday 25 Nov 2014 (Local Time) from KRDM Reporting Station
Clear Clear  
Wind Chill: 34°   Ceiling: Unl
Heat Index: 40°   Visibility: 10mi
Dew Point: 37°   Wind: 8mph
Humidity: 89%   Direction: 160°SSE
Pressure: 30.32"   Gusts: NA
Location:  44.4°N, 121.9°W
Report Text: KRDM 260556Z AUTO 16007KT 10SM CLR 04/03 A3032 RMK AO2 SLP268 T00440028 10128 20022 58003
Loading
Personal Weather Stations






























Interactive Weather Map New forecast layout! Learn more

10-Day Weather Forecast

Advertisements
Track Severe Weather on mobile